Terminal Aerodrome Forecast
Issued by NWS

Home | Current Version | Previous Version | Text Only | Print | Product List | Glossary On
Versions: 1 2 3 4 5 6 7 8 9 10 11 12 13 14 15 16
464
FTUS43 KILX 230537
TAFCMI
TAF
KCMI 230537Z 2306/2406 34013KT 5SM BR OVC007
     FM231700 34012KT P6SM BKN010
     FM240200 32007KT P6SM BKN020=

USA.gov is the U.S. government's official web portal to all federal, state and local government web resources and services.